sensor_id;sensor_type;location;lat;lon;timestamp;P1;durP1;ratioP1;P2;durP2;ratioP2
1785;SDS011;890;48.158;11.540;2024-02-21T00:02:15;1138.80;;;999.90;;
1785;SDS011;890;48.158;11.540;2024-02-21T00:04:43;1126.90;;;999.90;;
1785;SDS011;890;48.158;11.540;2024-02-21T00:07:08;1179.40;;;999.90;;
1785;SDS011;890;48.158;11.540;2024-02-21T00:09:34;1247.00;;;999.90;;
1785;SDS011;890;48.158;11.540;2024-02-21T00:12:00;1184.20;;;999.90;;
1785;SDS011;890;48.158;11.540;2024-02-21T00:14:26;1188.65;;;999.90;;
1785;SDS011;890;48.158;11.540;2024-02-21T00:16:51;1320.47;;;999.90;;
1785;SDS011;890;48.158;11.540;2024-02-21T00:19:17;1194.37;;;999.90;;
1785;SDS011;890;48.158;11.540;2024-02-21T00:21:43;1180.77;;;999.90;;
1785;SDS011;890;48.158;11.540;2024-02-21T00:24:08;1109.97;;;999.90;;
1785;SDS011;890;48.158;11.540;2024-02-21T00:26:34;1082.20;;;995.93;;
1785;SDS011;890;48.158;11.540;2024-02-21T00:28:59;1155.23;;;999.90;;
1785;SDS011;890;48.158;11.540;2024-02-21T00:31:25;1138.90;;;999.90;;
1785;SDS011;890;48.158;11.540;2024-02-21T00:33:51;1228.67;;;999.90;;
1785;SDS011;890;48.158;11.540;2024-02-21T00:36:16;1195.50;;;999.90;;
1785;SDS011;890;48.158;11.540;2024-02-21T00:38:42;1098.23;;;999.90;;
1785;SDS011;890;48.158;11.540;2024-02-21T00:41:07;1109.37;;;999.90;;
1785;SDS011;890;48.158;11.540;2024-02-21T00:43:33;1155.33;;;999.90;;
1785;SDS011;890;48.158;11.540;2024-02-21T00:45:59;1132.90;;;999.90;;
1785;SDS011;890;48.158;11.540;2024-02-21T00:48:24;1115.40;;;999.90;;
1785;SDS011;890;48.158;11.540;2024-02-21T00:50:50;1198.53;;;999.90;;
1785;SDS011;890;48.158;11.540;2024-02-21T00:53:16;1203.38;;;999.90;;
1785;SDS011;890;48.158;11.540;2024-02-21T00:55:42;1214.40;;;999.90;;
1785;SDS011;890;48.158;11.540;2024-02-21T00:58:08;1236.68;;;999.90;;
1785;SDS011;890;48.158;11.540;2024-02-21T01:00:34;1197.03;;;999.90;;
1785;SDS011;890;48.158;11.540;2024-02-21T01:02:59;1164.17;;;999.90;;
1785;SDS011;890;48.158;11.540;2024-02-21T01:05:25;1217.93;;;999.90;;
1785;SDS011;890;48.158;11.540;2024-02-21T01:07:52;1229.50;;;999.90;;
1785;SDS011;890;48.158;11.540;2024-02-21T01:10:18;1179.93;;;999.90;;
1785;SDS011;890;48.158;11.540;2024-02-21T01:12:43;1234.00;;;999.90;;
1785;SDS011;890;48.158;11.540;2024-02-21T01:15:09;541.27;;;498.60;;
1785;SDS011;890;48.158;11.540;2024-02-21T01:17:35;1238.10;;;999.90;;
1785;SDS011;890;48.158;11.540;2024-02-21T01:20:01;1218.90;;;999.90;;
1785;SDS011;890;48.158;11.540;2024-02-21T01:22:27;1093.65;;;996.92;;
1785;SDS011;890;48.158;11.540;2024-02-21T01:24:53;1209.43;;;999.90;;
1785;SDS011;890;48.158;11.540;2024-02-21T01:27:19;1145.67;;;999.90;;
1785;SDS011;890;48.158;11.540;2024-02-21T01:29:45;1148.40;;;999.90;;
1785;SDS011;890;48.158;11.540;2024-02-21T01:32:12;1193.85;;;999.90;;
1785;SDS011;890;48.158;11.540;2024-02-21T01:34:38;1274.47;;;999.90;;
1785;SDS011;890;48.158;11.540;2024-02-21T01:37:03;1233.03;;;999.90;;
1785;SDS011;890;48.158;11.540;2024-02-21T01:39:32;1211.28;;;999.90;;
1785;SDS011;890;48.158;11.540;2024-02-21T01:41:57;1144.17;;;999.90;;
1785;SDS011;890;48.158;11.540;2024-02-21T01:44:23;1147.90;;;999.90;;
1785;SDS011;890;48.158;11.540;2024-02-21T01:46:49;1150.87;;;999.90;;
1785;SDS011;890;48.158;11.540;2024-02-21T01:49:16;1123.07;;;999.90;;
1785;SDS011;890;48.158;11.540;2024-02-21T01:51:43;1043.53;;;975.87;;
1785;SDS011;890;48.158;11.540;2024-02-21T01:54:10;1062.32;;;985.58;;
1785;SDS011;890;48.158;11.540;2024-02-21T01:56:38;1001.58;;;935.88;;
1785;SDS011;890;48.158;11.540;2024-02-21T01:59:04;1019.60;;;953.13;;
1785;SDS011;890;48.158;11.540;2024-02-21T02:01:30;1073.80;;;993.50;;
1785;SDS011;890;48.158;11.540;2024-02-21T02:03:55;1136.53;;;999.90;;
1785;SDS011;890;48.158;11.540;2024-02-21T02:06:22;1107.95;;;999.75;;
1785;SDS011;890;48.158;11.540;2024-02-21T02:08:47;1105.57;;;999.90;;
1785;SDS011;890;48.158;11.540;2024-02-21T02:11:13;1198.27;;;999.90;;
1785;SDS011;890;48.158;11.540;2024-02-21T02:13:40;1153.18;;;999.90;;
1785;SDS011;890;48.158;11.540;2024-02-21T02:16:05;1169.23;;;999.90;;
1785;SDS011;890;48.158;11.540;2024-02-21T02:18:31;1189.40;;;999.90;;
1785;SDS011;890;48.158;11.540;2024-02-21T02:20:57;1135.00;;;999.90;;
1785;SDS011;890;48.158;11.540;2024-02-21T02:23:32;1022.00;;;956.43;;
1785;SDS011;890;48.158;11.540;2024-02-21T02:25:58;1013.33;;;947.53;;
1785;SDS011;890;48.158;11.540;2024-02-21T02:28:24;1008.47;;;944.37;;
1785;SDS011;890;48.158;11.540;2024-02-21T02:30:50;959.53;;;896.63;;
1785;SDS011;890;48.158;11.540;2024-02-21T02:33:16;1003.00;;;937.97;;
1785;SDS011;890;48.158;11.540;2024-02-21T02:35:45;1026.10;;;960.70;;
1785;SDS011;890;48.158;11.540;2024-02-21T02:38:10;965.97;;;903.50;;
1785;SDS011;890;48.158;11.540;2024-02-21T02:40:38;929.92;;;869.25;;
1785;SDS011;890;48.158;11.540;2024-02-21T02:43:05;909.65;;;850.03;;
1785;SDS011;890;48.158;11.540;2024-02-21T02:45:31;807.97;;;751.83;;
1785;SDS011;890;48.158;11.540;2024-02-21T02:47:57;559.03;;;509.80;;
1785;SDS011;890;48.158;11.540;2024-02-21T02:50:23;560.87;;;511.57;;
1785;SDS011;890;48.158;11.540;2024-02-21T02:52:49;634.22;;;581.95;;
1785;SDS011;890;48.158;11.540;2024-02-21T02:55:15;621.70;;;569.57;;
1785;SDS011;890;48.158;11.540;2024-02-21T02:57:41;590.83;;;541.03;;
1785;SDS011;890;48.158;11.540;2024-02-21T03:00:07;630.73;;;579.23;;
1785;SDS011;890;48.158;11.540;2024-02-21T03:02:34;831.03;;;773.78;;
1785;SDS011;890;48.158;11.540;2024-02-21T03:05:00;548.97;;;499.63;;
1785;SDS011;890;48.158;11.540;2024-02-21T03:07:35;650.45;;;597.53;;
1785;SDS011;890;48.158;11.540;2024-02-21T03:10:01;575.00;;;523.93;;
1785;SDS011;890;48.158;11.540;2024-02-21T03:12:27;584.80;;;532.90;;
1785;SDS011;890;48.158;11.540;2024-02-21T03:14:54;623.83;;;572.78;;
1785;SDS011;890;48.158;11.540;2024-02-21T03:17:19;735.43;;;680.80;;
1785;SDS011;890;48.158;11.540;2024-02-21T03:19:45;898.10;;;837.85;;
1785;SDS011;890;48.158;11.540;2024-02-21T03:22:11;921.07;;;859.20;;
1785;SDS011;890;48.158;11.540;2024-02-21T03:24:37;765.60;;;709.80;;
1785;SDS011;890;48.158;11.540;2024-02-21T03:27:02;837.10;;;779.17;;
1785;SDS011;890;48.158;11.540;2024-02-21T03:29:28;951.57;;;889.17;;
1785;SDS011;890;48.158;11.540;2024-02-21T03:31:53;979.13;;;915.33;;
1785;SDS011;890;48.158;11.540;2024-02-21T03:34:20;959.03;;;896.80;;
1785;SDS011;890;48.158;11.540;2024-02-21T03:36:46;923.37;;;861.87;;
1785;SDS011;890;48.158;11.540;2024-02-21T03:39:11;882.67;;;823.60;;
1785;SDS011;890;48.158;11.540;2024-02-21T03:41:37;935.13;;;873.97;;
1785;SDS011;890;48.158;11.540;2024-02-21T03:44:03;977.37;;;911.97;;
1785;SDS011;890;48.158;11.540;2024-02-21T03:46:29;1074.32;;;992.90;;
1785;SDS011;890;48.158;11.540;2024-02-21T03:48:55;967.50;;;904.65;;
1785;SDS011;890;48.158;11.540;2024-02-21T03:51:22;1010.38;;;945.67;;
1785;SDS011;890;48.158;11.540;2024-02-21T03:53:47;938.03;;;875.53;;
1785;SDS011;890;48.158;11.540;2024-02-21T03:56:13;701.77;;;648.97;;
1785;SDS011;890;48.158;11.540;2024-02-21T03:58:39;612.10;;;562.33;;
1785;SDS011;890;48.158;11.540;2024-02-21T04:01:04;641.67;;;590.70;;
1785;SDS011;890;48.158;11.540;2024-02-21T04:03:30;739.47;;;685.13;;
1785;SDS011;890;48.158;11.540;2024-02-21T04:05:56;668.27;;;613.47;;
1785;SDS011;890;48.158;11.540;2024-02-21T04:08:22;632.60;;;579.43;;
1785;SDS011;890;48.158;11.540;2024-02-21T04:10:48;520.80;;;473.30;;
1785;SDS011;890;48.158;11.540;2024-02-21T04:13:14;585.80;;;535.53;;
1785;SDS011;890;48.158;11.540;2024-02-21T04:15:39;567.37;;;516.93;;
1785;SDS011;890;48.158;11.540;2024-02-21T04:18:05;505.00;;;459.17;;
1785;SDS011;890;48.158;11.540;2024-02-21T04:20:31;390.23;;;308.87;;
1785;SDS011;890;48.158;11.540;2024-02-21T04:22:57;490.80;;;445.13;;
1785;SDS011;890;48.158;11.540;2024-02-21T04:25:23;378.67;;;279.80;;
1785;SDS011;890;48.158;11.540;2024-02-21T04:27:49;423.10;;;249.32;;
1785;SDS011;890;48.158;11.540;2024-02-21T04:30:14;305.47;;;92.90;;
1785;SDS011;890;48.158;11.540;2024-02-21T04:32:41;401.75;;;216.45;;
1785;SDS011;890;48.158;11.540;2024-02-21T04:35:07;379.17;;;285.25;;
1785;SDS011;890;48.158;11.540;2024-02-21T04:37:33;386.75;;;251.95;;
1785;SDS011;890;48.158;11.540;2024-02-21T04:39:58;374.93;;;224.87;;
1785;SDS011;890;48.158;11.540;2024-02-21T04:42:24;397.50;;;248.07;;
1785;SDS011;890;48.158;11.540;2024-02-21T04:44:50;392.57;;;262.40;;
1785;SDS011;890;48.158;11.540;2024-02-21T04:47:15;410.90;;;366.57;;
1785;SDS011;890;48.158;11.540;2024-02-21T04:49:41;417.03;;;190.73;;
1785;SDS011;890;48.158;11.540;2024-02-21T04:52:08;368.80;;;257.85;;
1785;SDS011;890;48.158;11.540;2024-02-21T04:54:34;375.07;;;273.30;;
1785;SDS011;890;48.158;11.540;2024-02-21T04:57:02;400.08;;;157.23;;
1785;SDS011;890;48.158;11.540;2024-02-21T04:59:28;414.90;;;207.03;;
1785;SDS011;890;48.158;11.540;2024-02-21T05:01:54;301.02;;;150.05;;
1785;SDS011;890;48.158;11.540;2024-02-21T05:04:20;366.67;;;206.90;;
1785;SDS011;890;48.158;11.540;2024-02-21T05:06:45;365.83;;;228.93;;
1785;SDS011;890;48.158;11.540;2024-02-21T05:09:11;360.60;;;198.43;;
1785;SDS011;890;48.158;11.540;2024-02-21T05:11:37;408.73;;;331.83;;
1785;SDS011;890;48.158;11.540;2024-02-21T05:14:03;378.55;;;219.18;;
1785;SDS011;890;48.158;11.540;2024-02-21T05:16:29;459.30;;;398.55;;
1785;SDS011;890;48.158;11.540;2024-02-21T05:18:56;488.33;;;439.42;;
1785;SDS011;890;48.158;11.540;2024-02-21T05:21:25;554.35;;;504.35;;
1785;SDS011;890;48.158;11.540;2024-02-21T05:23:51;610.75;;;558.78;;
1785;SDS011;890;48.158;11.540;2024-02-21T05:26:27;555.00;;;504.30;;
1785;SDS011;890;48.158;11.540;2024-02-21T05:28:53;349.45;;;166.30;;
1785;SDS011;890;48.158;11.540;2024-02-21T05:31:18;356.90;;;202.57;;
1785;SDS011;890;48.158;11.540;2024-02-21T05:33:45;521.67;;;474.17;;
1785;SDS011;890;48.158;11.540;2024-02-21T05:36:11;482.73;;;435.33;;
1785;SDS011;890;48.158;11.540;2024-02-21T05:38:37;561.60;;;512.10;;
1785;SDS011;890;48.158;11.540;2024-02-21T05:41:02;495.00;;;447.30;;
1785;SDS011;890;48.158;11.540;2024-02-21T05:43:29;549.22;;;500.52;;
1785;SDS011;890;48.158;11.540;2024-02-21T05:45:54;535.50;;;485.10;;
1785;SDS011;890;48.158;11.540;2024-02-21T05:48:21;876.00;;;814.83;;
1785;SDS011;890;48.158;11.540;2024-02-21T05:50:47;1117.60;;;999.90;;
1785;SDS011;890;48.158;11.540;2024-02-21T05:53:13;1110.80;;;999.90;;
1785;SDS011;890;48.158;11.540;2024-02-21T05:55:39;1053.77;;;981.27;;
1785;SDS011;890;48.158;11.540;2024-02-21T05:58:05;1079.07;;;992.35;;
1785;SDS011;890;48.158;11.540;2024-02-21T06:00:31;1104.27;;;987.17;;
1785;SDS011;890;48.158;11.540;2024-02-21T06:02:57;1153.40;;;999.90;;
1785;SDS011;890;48.158;11.540;2024-02-21T06:05:23;1115.07;;;999.90;;
1785;SDS011;890;48.158;11.540;2024-02-21T06:07:48;1150.43;;;999.90;;
1785;SDS011;890;48.158;11.540;2024-02-21T06:10:14;1150.67;;;999.90;;
1785;SDS011;890;48.158;11.540;2024-02-21T06:12:39;1165.03;;;999.90;;
1785;SDS011;890;48.158;11.540;2024-02-21T06:15:05;1187.00;;;999.90;;
1785;SDS011;890;48.158;11.540;2024-02-21T06:17:31;1060.57;;;982.83;;
1785;SDS011;890;48.158;11.540;2024-02-21T06:19:57;1146.57;;;999.90;;
1785;SDS011;890;48.158;11.540;2024-02-21T06:22:22;1185.23;;;999.90;;
1785;SDS011;890;48.158;11.540;2024-02-21T06:24:48;1239.67;;;999.90;;
1785;SDS011;890;48.158;11.540;2024-02-21T06:27:14;1275.63;;;999.90;;
1785;SDS011;890;48.158;11.540;2024-02-21T06:29:41;1236.35;;;999.90;;
1785;SDS011;890;48.158;11.540;2024-02-21T06:32:07;1171.80;;;999.90;;
1785;SDS011;890;48.158;11.540;2024-02-21T06:34:32;1182.23;;;999.90;;
1785;SDS011;890;48.158;11.540;2024-02-21T06:36:58;1177.90;;;999.90;;
1785;SDS011;890;48.158;11.540;2024-02-21T06:39:24;1201.83;;;999.90;;
1785;SDS011;890;48.158;11.540;2024-02-21T06:41:50;789.53;;;729.73;;
1785;SDS011;890;48.158;11.540;2024-02-21T06:44:19;1159.63;;;999.90;;
1785;SDS011;890;48.158;11.540;2024-02-21T06:46:46;1184.68;;;999.90;;
1785;SDS011;890;48.158;11.540;2024-02-21T06:49:11;1193.90;;;999.90;;
1785;SDS011;890;48.158;11.540;2024-02-21T06:51:41;1169.22;;;999.90;;
1785;SDS011;890;48.158;11.540;2024-02-21T06:54:09;1166.53;;;999.90;;
1785;SDS011;890;48.158;11.540;2024-02-21T06:56:36;1044.85;;;949.00;;
1785;SDS011;890;48.158;11.540;2024-02-21T06:59:02;1184.43;;;999.90;;
1785;SDS011;890;48.158;11.540;2024-02-21T07:01:31;1229.45;;;999.90;;
1785;SDS011;890;48.158;11.540;2024-02-21T07:03:57;1215.13;;;999.90;;
1785;SDS011;890;48.158;11.540;2024-02-21T07:06:23;1148.23;;;999.90;;
1785;SDS011;890;48.158;11.540;2024-02-21T07:08:48;1225.73;;;999.90;;
1785;SDS011;890;48.158;11.540;2024-02-21T07:11:14;1152.40;;;999.90;;
1785;SDS011;890;48.158;11.540;2024-02-21T07:13:39;1182.73;;;999.90;;
1785;SDS011;890;48.158;11.540;2024-02-21T07:16:06;1096.93;;;999.90;;
1785;SDS011;890;48.158;11.540;2024-02-21T07:18:32;1181.05;;;999.90;;
1785;SDS011;890;48.158;11.540;2024-02-21T07:20:57;1335.73;;;999.90;;
1785;SDS011;890;48.158;11.540;2024-02-21T07:23:23;1189.50;;;999.90;;
1785;SDS011;890;48.158;11.540;2024-02-21T07:25:49;573.20;;;521.43;;
1785;SDS011;890;48.158;11.540;2024-02-21T07:28:15;901.37;;;839.27;;
1785;SDS011;890;48.158;11.540;2024-02-21T07:30:41;1059.97;;;975.25;;
1785;SDS011;890;48.158;11.540;2024-02-21T07:33:07;1013.90;;;947.92;;
1785;SDS011;890;48.158;11.540;2024-02-21T07:35:33;1071.30;;;993.57;;
1785;SDS011;890;48.158;11.540;2024-02-21T07:37:58;955.33;;;893.10;;
1785;SDS011;890;48.158;11.540;2024-02-21T07:40:24;908.77;;;848.80;;
1785;SDS011;890;48.158;11.540;2024-02-21T07:42:50;920.83;;;859.40;;
1785;SDS011;890;48.158;11.540;2024-02-21T07:45:15;529.63;;;482.37;;
1785;SDS011;890;48.158;11.540;2024-02-21T07:47:43;563.65;;;514.75;;
1785;SDS011;890;48.158;11.540;2024-02-21T07:50:09;518.40;;;471.50;;
1785;SDS011;890;48.158;11.540;2024-02-21T07:52:34;379.70;;;231.37;;
1785;SDS011;890;48.158;11.540;2024-02-21T07:55:00;365.77;;;228.20;;
1785;SDS011;890;48.158;11.540;2024-02-21T07:57:26;421.47;;;366.87;;
1785;SDS011;890;48.158;11.540;2024-02-21T07:59:52;474.87;;;429.00;;
1785;SDS011;890;48.158;11.540;2024-02-21T08:02:17;370.97;;;223.37;;
1785;SDS011;890;48.158;11.540;2024-02-21T08:04:43;380.87;;;282.17;;
1785;SDS011;890;48.158;11.540;2024-02-21T08:07:09;390.97;;;294.40;;
1785;SDS011;890;48.158;11.540;2024-02-21T08:09:34;677.57;;;635.63;;
1785;SDS011;890;48.158;11.540;2024-02-21T08:12:02;476.40;;;446.93;;
1785;SDS011;890;48.158;11.540;2024-02-21T08:14:29;1098.17;;;999.90;;
1785;SDS011;890;48.158;11.540;2024-02-21T08:16:54;1096.03;;;999.90;;
1785;SDS011;890;48.158;11.540;2024-02-21T08:19:21;1032.30;;;968.63;;
1785;SDS011;890;48.158;11.540;2024-02-21T08:21:47;739.10;;;692.17;;
1785;SDS011;890;48.158;11.540;2024-02-21T08:24:13;964.53;;;899.87;;
1785;SDS011;890;48.158;11.540;2024-02-21T08:26:43;1035.80;;;947.47;;
1785;SDS011;890;48.158;11.540;2024-02-21T08:29:12;888.47;;;829.07;;
1785;SDS011;890;48.158;11.540;2024-02-21T08:31:37;893.53;;;830.57;;
1785;SDS011;890;48.158;11.540;2024-02-21T08:34:03;556.73;;;508.47;;
1785;SDS011;890;48.158;11.540;2024-02-21T08:36:30;819.47;;;754.53;;
1785;SDS011;890;48.158;11.540;2024-02-21T08:38:56;738.03;;;677.97;;
1785;SDS011;890;48.158;11.540;2024-02-21T08:41:25;888.53;;;833.67;;
1785;SDS011;890;48.158;11.540;2024-02-21T08:43:52;393.33;;;342.98;;
1785;SDS011;890;48.158;11.540;2024-02-21T08:46:19;402.23;;;339.13;;
1785;SDS011;890;48.158;11.540;2024-02-21T08:48:46;420.88;;;376.83;;
1785;SDS011;890;48.158;11.540;2024-02-21T08:51:12;462.52;;;418.02;;
1785;SDS011;890;48.158;11.540;2024-02-21T08:53:38;436.20;;;392.25;;
1785;SDS011;890;48.158;11.540;2024-02-21T08:56:04;512.27;;;466.63;;
1785;SDS011;890;48.158;11.540;2024-02-21T08:58:30;536.40;;;488.70;;
1785;SDS011;890;48.158;11.540;2024-02-21T09:00:56;621.20;;;572.60;;
1785;SDS011;890;48.158;11.540;2024-02-21T09:03:22;695.97;;;646.27;;
1785;SDS011;890;48.158;11.540;2024-02-21T09:05:48;796.13;;;743.87;;
1785;SDS011;890;48.158;11.540;2024-02-21T09:08:13;890.60;;;834.13;;
1785;SDS011;890;48.158;11.540;2024-02-21T09:10:39;945.93;;;887.90;;
1785;SDS011;890;48.158;11.540;2024-02-21T09:13:05;1013.37;;;952.07;;
1785;SDS011;890;48.158;11.540;2024-02-21T09:15:32;1052.93;;;991.07;;
1785;SDS011;890;48.158;11.540;2024-02-21T09:17:58;1068.17;;;999.20;;
1785;SDS011;890;48.158;11.540;2024-02-21T09:20:23;1123.10;;;999.90;;
1785;SDS011;890;48.158;11.540;2024-02-21T09:22:49;1115.77;;;999.90;;
1785;SDS011;890;48.158;11.540;2024-02-21T09:25:15;1121.97;;;999.90;;
1785;SDS011;890;48.158;11.540;2024-02-21T09:27:41;1124.13;;;999.90;;
1785;SDS011;890;48.158;11.540;2024-02-21T09:30:08;1128.73;;;999.90;;
1785;SDS011;890;48.158;11.540;2024-02-21T09:32:34;1150.90;;;999.90;;
1785;SDS011;890;48.158;11.540;2024-02-21T09:35:01;1133.50;;;999.90;;
1785;SDS011;890;48.158;11.540;2024-02-21T09:37:27;1149.07;;;999.90;;
1785;SDS011;890;48.158;11.540;2024-02-21T09:39:52;1147.37;;;999.90;;
1785;SDS011;890;48.158;11.540;2024-02-21T09:42:19;1177.00;;;999.90;;
1785;SDS011;890;48.158;11.540;2024-02-21T09:44:49;1144.70;;;999.90;;
1785;SDS011;890;48.158;11.540;2024-02-21T09:47:20;1158.63;;;999.90;;
1785;SDS011;890;48.158;11.540;2024-02-21T09:49:49;1162.33;;;999.90;;
1785;SDS011;890;48.158;11.540;2024-02-21T09:52:17;1171.33;;;999.90;;
1785;SDS011;890;48.158;11.540;2024-02-21T09:54:45;1160.77;;;999.90;;
1785;SDS011;890;48.158;11.540;2024-02-21T09:57:13;1188.30;;;999.90;;
1785;SDS011;890;48.158;11.540;2024-02-21T09:59:40;1180.03;;;999.90;;
1785;SDS011;890;48.158;11.540;2024-02-21T10:02:06;1183.00;;;999.90;;
1785;SDS011;890;48.158;11.540;2024-02-21T10:04:32;1161.97;;;999.90;;
1785;SDS011;890;48.158;11.540;2024-02-21T10:06:59;1167.10;;;999.90;;
1785;SDS011;890;48.158;11.540;2024-02-21T10:09:25;1007.37;;;942.03;;
1785;SDS011;890;48.158;11.540;2024-02-21T10:11:54;1143.07;;;999.90;;
1785;SDS011;890;48.158;11.540;2024-02-21T10:14:21;1189.40;;;999.90;;
1785;SDS011;890;48.158;11.540;2024-02-21T10:16:47;1181.57;;;999.90;;
1785;SDS011;890;48.158;11.540;2024-02-21T10:19:20;1217.27;;;999.90;;
1785;SDS011;890;48.158;11.540;2024-02-21T10:22:05;1222.33;;;999.90;;
1785;SDS011;890;48.158;11.540;2024-02-21T10:24:34;1202.43;;;999.90;;
1785;SDS011;890;48.158;11.540;2024-02-21T10:27:03;1208.93;;;999.90;;
1785;SDS011;890;48.158;11.540;2024-02-21T10:29:33;1206.13;;;999.90;;
1785;SDS011;890;48.158;11.540;2024-02-21T10:34:38;1167.60;;;999.90;;
1785;SDS011;890;48.158;11.540;2024-02-21T10:37:06;1170.13;;;999.90;;
1785;SDS011;890;48.158;11.540;2024-02-21T10:39:39;985.20;;;923.33;;
1785;SDS011;890;48.158;11.540;2024-02-21T10:42:06;929.00;;;868.50;;
1785;SDS011;890;48.158;11.540;2024-02-21T10:44:33;967.00;;;908.27;;
1785;SDS011;890;48.158;11.540;2024-02-21T10:47:03;1013.00;;;950.20;;
1785;SDS011;890;48.158;11.540;2024-02-21T10:49:33;1091.00;;;999.90;;
1785;SDS011;890;48.158;11.540;2024-02-21T10:54:47;1221.13;;;999.90;;
1785;SDS011;890;48.158;11.540;2024-02-21T10:57:25;1252.43;;;999.90;;
1785;SDS011;890;48.158;11.540;2024-02-21T10:59:52;1257.13;;;999.90;;
1785;SDS011;890;48.158;11.540;2024-02-21T11:02:19;1243.90;;;999.90;;
1785;SDS011;890;48.158;11.540;2024-02-21T11:04:45;1236.43;;;999.90;;
1785;SDS011;890;48.158;11.540;2024-02-21T11:07:12;1201.13;;;999.90;;
1785;SDS011;890;48.158;11.540;2024-02-21T11:09:39;1170.20;;;999.90;;
1785;SDS011;890;48.158;11.540;2024-02-21T11:12:05;1180.70;;;999.90;;
1785;SDS011;890;48.158;11.540;2024-02-21T11:14:32;1180.77;;;999.90;;
1785;SDS011;890;48.158;11.540;2024-02-21T11:16:57;1173.63;;;999.90;;
1785;SDS011;890;48.158;11.540;2024-02-21T11:19:27;1171.53;;;999.90;;
1785;SDS011;890;48.158;11.540;2024-02-21T11:21:57;1157.80;;;999.90;;
1785;SDS011;890;48.158;11.540;2024-02-21T11:24:29;1156.23;;;999.90;;
1785;SDS011;890;48.158;11.540;2024-02-21T11:27:08;1142.53;;;999.90;;
1785;SDS011;890;48.158;11.540;2024-02-21T11:32:14;1160.00;;;999.90;;
1785;SDS011;890;48.158;11.540;2024-02-21T11:34:41;1118.40;;;999.90;;
1785;SDS011;890;48.158;11.540;2024-02-21T11:37:17;1120.27;;;999.90;;
1785;SDS011;890;48.158;11.540;2024-02-21T11:39:43;1116.53;;;999.90;;
1785;SDS011;890;48.158;11.540;2024-02-21T11:42:08;1109.93;;;999.90;;
1785;SDS011;890;48.158;11.540;2024-02-21T11:44:35;1104.33;;;999.90;;
1785;SDS011;890;48.158;11.540;2024-02-21T11:47:05;1101.87;;;999.90;;
1785;SDS011;890;48.158;11.540;2024-02-21T11:49:35;1089.33;;;999.90;;
1785;SDS011;890;48.158;11.540;2024-02-21T11:52:03;1096.73;;;999.90;;
1785;SDS011;890;48.158;11.540;2024-02-21T11:54:31;1079.87;;;999.90;;
1785;SDS011;890;48.158;11.540;2024-02-21T11:56:58;1068.67;;;998.43;;
1785;SDS011;890;48.158;11.540;2024-02-21T11:59:23;1067.10;;;998.90;;
1785;SDS011;890;48.158;11.540;2024-02-21T12:01:49;1065.40;;;998.93;;
1785;SDS011;890;48.158;11.540;2024-02-21T12:04:17;1059.53;;;993.53;;
1785;SDS011;890;48.158;11.540;2024-02-21T12:06:44;1067.77;;;998.63;;
1785;SDS011;890;48.158;11.540;2024-02-21T12:09:13;1060.93;;;995.63;;
1785;SDS011;890;48.158;11.540;2024-02-21T12:11:42;1092.33;;;999.90;;
1785;SDS011;890;48.158;11.540;2024-02-21T12:14:09;1103.47;;;999.90;;
1785;SDS011;890;48.158;11.540;2024-02-21T12:16:34;1096.60;;;999.90;;
1785;SDS011;890;48.158;11.540;2024-02-21T12:19:03;1127.37;;;999.90;;
1785;SDS011;890;48.158;11.540;2024-02-21T12:21:30;1125.50;;;999.90;;
1785;SDS011;890;48.158;11.540;2024-02-21T12:23:57;1140.07;;;999.90;;
1785;SDS011;890;48.158;11.540;2024-02-21T12:26:24;1156.87;;;999.90;;
1785;SDS011;890;48.158;11.540;2024-02-21T12:28:50;1159.80;;;999.90;;
1785;SDS011;890;48.158;11.540;2024-02-21T12:31:16;1165.70;;;999.90;;
1785;SDS011;890;48.158;11.540;2024-02-21T12:33:42;1181.07;;;999.90;;
1785;SDS011;890;48.158;11.540;2024-02-21T12:36:08;1196.23;;;999.90;;
1785;SDS011;890;48.158;11.540;2024-02-21T12:38:37;1169.53;;;999.90;;
1785;SDS011;890;48.158;11.540;2024-02-21T12:41:02;1200.80;;;999.90;;
1785;SDS011;890;48.158;11.540;2024-02-21T12:43:28;1166.27;;;999.90;;
1785;SDS011;890;48.158;11.540;2024-02-21T12:45:54;1185.53;;;999.90;;
1785;SDS011;890;48.158;11.540;2024-02-21T12:48:19;1186.13;;;999.90;;
1785;SDS011;890;48.158;11.540;2024-02-21T12:50:48;1150.87;;;999.90;;
1785;SDS011;890;48.158;11.540;2024-02-21T12:53:17;1122.43;;;999.90;;
1785;SDS011;890;48.158;11.540;2024-02-21T12:55:46;1109.77;;;999.90;;
1785;SDS011;890;48.158;11.540;2024-02-21T12:58:13;1092.27;;;999.90;;
1785;SDS011;890;48.158;11.540;2024-02-21T13:00:39;1043.03;;;979.37;;
1785;SDS011;890;48.158;11.540;2024-02-21T13:03:05;997.80;;;938.10;;
1785;SDS011;890;48.158;11.540;2024-02-21T13:05:31;944.17;;;885.83;;
1785;SDS011;890;48.158;11.540;2024-02-21T13:07:57;961.63;;;903.57;;
1785;SDS011;890;48.158;11.540;2024-02-21T13:10:23;947.57;;;886.70;;
1785;SDS011;890;48.158;11.540;2024-02-21T13:12:49;945.80;;;885.30;;
1785;SDS011;890;48.158;11.540;2024-02-21T13:15:14;943.23;;;884.33;;
1785;SDS011;890;48.158;11.540;2024-02-21T13:17:42;966.00;;;906.00;;
1785;SDS011;890;48.158;11.540;2024-02-21T13:20:11;979.27;;;919.17;;
1785;SDS011;890;48.158;11.540;2024-02-21T13:22:37;1018.33;;;956.43;;
1785;SDS011;890;48.158;11.540;2024-02-21T13:25:03;990.93;;;930.63;;
1785;SDS011;890;48.158;11.540;2024-02-21T13:27:32;943.00;;;879.07;;
1785;SDS011;890;48.158;11.540;2024-02-21T13:29:58;886.07;;;831.07;;
1785;SDS011;890;48.158;11.540;2024-02-21T13:32:25;930.40;;;872.03;;
1785;SDS011;890;48.158;11.540;2024-02-21T13:34:50;925.47;;;864.97;;
1785;SDS011;890;48.158;11.540;2024-02-21T13:37:17;901.73;;;846.10;;
1785;SDS011;890;48.158;11.540;2024-02-21T13:39:43;872.97;;;818.80;;
1785;SDS011;890;48.158;11.540;2024-02-21T13:42:09;910.03;;;853.53;;
1785;SDS011;890;48.158;11.540;2024-02-21T13:44:35;935.33;;;878.20;;
1785;SDS011;890;48.158;11.540;2024-02-21T13:47:01;912.13;;;856.27;;
1785;SDS011;890;48.158;11.540;2024-02-21T13:49:27;927.50;;;870.50;;
1785;SDS011;890;48.158;11.540;2024-02-21T13:51:53;893.57;;;837.37;;
1785;SDS011;890;48.158;11.540;2024-02-21T13:54:19;913.10;;;855.70;;
1785;SDS011;890;48.158;11.540;2024-02-21T13:56:46;924.70;;;867.33;;
1785;SDS011;890;48.158;11.540;2024-02-21T13:59:12;904.57;;;848.20;;
1785;SDS011;890;48.158;11.540;2024-02-21T14:01:40;896.13;;;841.13;;
1785;SDS011;890;48.158;11.540;2024-02-21T14:04:06;896.50;;;839.77;;
1785;SDS011;890;48.158;11.540;2024-02-21T14:06:32;867.87;;;810.60;;
1785;SDS011;890;48.158;11.540;2024-02-21T14:08:57;875.27;;;815.17;;
1785;SDS011;890;48.158;11.540;2024-02-21T14:11:23;914.20;;;855.60;;
1785;SDS011;890;48.158;11.540;2024-02-21T14:13:49;993.73;;;931.87;;
1785;SDS011;890;48.158;11.540;2024-02-21T14:16:14;1002.03;;;940.10;;
1785;SDS011;890;48.158;11.540;2024-02-21T14:18:43;958.20;;;898.83;;